createdAt,value
2023-04-29T00:02:45.689Z,14.4
2023-04-29T00:08:40.244Z,12.6
2023-04-29T00:14:32.759Z,16
2023-04-29T00:20:25.414Z,17.6
2023-04-29T00:26:17.250Z,15.3
2023-04-29T00:32:09.814Z,16
2023-04-29T00:38:02.617Z,17.7
2023-04-29T00:43:55.071Z,17.9
2023-04-29T00:49:47.470Z,23.1
2023-04-29T00:55:39.087Z,22.8
2023-04-29T01:01:31.536Z,23.3
2023-04-29T01:07:24.173Z,27
2023-04-29T01:13:15.838Z,27.9
2023-04-29T01:19:08.531Z,29.4
2023-04-29T01:25:00.851Z,29.8
2023-04-29T01:30:54.475Z,31.2
2023-04-29T01:36:45.972Z,30
2023-04-29T01:42:39.163Z,28.6
2023-04-29T01:48:31.517Z,27.9
2023-04-29T01:54:22.321Z,27.9
2023-04-29T02:00:15.349Z,23.4
2023-04-29T02:06:08.095Z,22.1
2023-04-29T02:12:00.265Z,19.3
2023-04-29T02:17:52.420Z,19.3
2023-04-29T02:23:44.011Z,20.2
2023-04-29T02:29:37.338Z,20
2023-04-29T02:35:29.710Z,24.8
2023-04-29T02:41:21.940Z,26.9
2023-04-29T02:47:14.799Z,21.3
2023-04-29T02:53:07.916Z,20.4
2023-04-29T02:58:58.626Z,25.2
2023-04-29T03:04:50.344Z,34.1
2023-04-29T03:10:45.646Z,36.8
2023-04-29T03:16:37.312Z,38.8
2023-04-29T03:22:30.342Z,41.8
2023-04-29T03:28:23.450Z,44.3
2023-04-29T03:34:15.710Z,44.3
2023-04-29T03:40:07.878Z,47.9
2023-04-29T03:45:59.664Z,48.2
2023-04-29T03:51:51.833Z,48.2
2023-04-29T03:57:47.619Z,51.8
2023-04-29T04:03:40.465Z,54.6
2023-04-29T04:09:32.623Z,55.6
2023-04-29T04:15:25.338Z,56.7
2023-04-29T04:21:17.850Z,54.8
2023-04-29T04:27:10.741Z,54.7
2023-04-29T04:33:03.358Z,59.1
2023-04-29T04:38:55.714Z,60.1
2023-04-29T04:44:48.049Z,67.9
2023-04-29T04:50:40.579Z,69.2
2023-04-29T04:56:32.417Z,80.8
2023-04-29T05:02:25.699Z,75.8
2023-04-29T05:08:29.481Z,74.6
2023-04-29T05:14:30.580Z,76.6
2023-04-29T05:20:25.552Z,81.3
2023-04-29T05:26:27.260Z,84
2023-04-29T05:32:21.766Z,88.8
2023-04-29T05:38:22.249Z,87.4
2023-04-29T05:44:14.550Z,89.3
2023-04-29T05:50:09.370Z,83
2023-04-29T05:56:02.604Z,69.9
2023-04-29T06:01:59.258Z,67.6
2023-04-29T06:07:53.098Z,72.7
2023-04-29T06:13:48.043Z,68
2023-04-29T06:19:45.533Z,67.5
2023-04-29T06:25:38.797Z,62.6
2023-04-29T06:31:34.054Z,63.9
2023-04-29T06:37:35.306Z,60.7
2023-04-29T06:43:27.412Z,57.5
2023-04-29T06:49:20.001Z,60.4
2023-04-29T06:55:15.162Z,59
2023-04-29T07:01:08.406Z,51.9
2023-04-29T07:07:02.858Z,56.7
2023-04-29T07:12:57.588Z,57.1
2023-04-29T07:18:53.716Z,55.8
2023-04-29T07:24:46.523Z,50.5
2023-04-29T07:30:38.955Z,47.8
2023-04-29T07:36:36.614Z,46.7
2023-04-29T07:42:31.341Z,47.1
2023-04-29T07:48:23.563Z,43.1
2023-04-29T07:54:30.287Z,47.1
2023-04-29T08:00:22.306Z,44.4
2023-04-29T08:06:19.859Z,44.9
2023-04-29T08:12:13.735Z,47.9
2023-04-29T08:18:14.731Z,41
2023-04-29T08:24:20.949Z,43.3
2023-04-29T08:30:29.518Z,36.8
2023-04-29T08:36:33.204Z,33.3
2023-04-29T08:42:25.940Z,32.8
2023-04-29T08:48:26.538Z,34.9
2023-04-29T08:54:19.596Z,33.7
2023-04-29T09:00:26.744Z,34.6
2023-04-29T09:06:30.857Z,33.2
2023-04-29T09:12:25.942Z,31.9
2023-04-29T09:18:40.304Z,34.2
2023-04-29T09:25:15.160Z,33
2023-04-29T09:31:27.394Z,33.5
2023-04-29T09:37:21.447Z,33.3
2023-04-29T10:28:40.223Z,33.8
2023-04-29T10:47:23.185Z,34.5
2023-04-29T10:53:56.549Z,31
2023-04-29T11:23:54.448Z,46.5
2023-04-29T11:29:47.346Z,49.3
2023-04-29T11:35:43.700Z,51.5
2023-04-29T11:41:38.894Z,52.6
2023-04-29T11:47:32.427Z,50.4
2023-04-29T11:53:24.605Z,56.3
2023-04-29T11:59:16.105Z,61
2023-04-29T12:05:09.044Z,60
2023-04-29T12:11:01.719Z,65.2
2023-04-29T12:16:53.581Z,67.8
2023-04-29T12:22:45.288Z,72.9
2023-04-29T12:28:39.903Z,68.2
2023-04-29T12:34:31.457Z,70.8
2023-04-29T12:40:22.988Z,62.2
2023-04-29T12:46:15.774Z,57.8
2023-04-29T12:52:12.431Z,56.4
2023-04-29T12:58:08.148Z,55.9
2023-04-29T13:04:01.244Z,55.5
2023-04-29T13:10:11.870Z,77.6
2023-04-29T13:16:04.199Z,97.9
2023-04-29T13:21:56.200Z,119.1
2023-04-29T13:27:54.253Z,131.5
2023-04-29T13:34:09.414Z,128.8
2023-04-29T13:40:07.032Z,132.3
2023-04-29T13:46:06.785Z,128.9
2023-04-29T14:07:29.832Z,131.6
2023-04-29T14:13:22.877Z,121
2023-04-29T14:19:14.684Z,98.4
2023-04-29T14:25:06.335Z,90.1
2023-04-29T14:31:00.094Z,90.6
2023-04-29T14:36:54.698Z,80.1
2023-04-29T14:42:54.250Z,72.7
2023-04-29T14:48:45.420Z,85.1
2023-04-29T14:54:39.083Z,85
2023-04-29T15:00:30.973Z,85.9
2023-04-29T15:06:25.016Z,88.1
2023-04-29T15:12:15.915Z,83.4
2023-04-29T15:18:08.284Z,86.6
2023-04-29T15:23:57.896Z,78.5
2023-04-29T15:29:50.296Z,82.2
2023-04-29T15:35:41.629Z,68.7
2023-04-29T15:41:31.900Z,81.7
2023-04-29T15:47:24.222Z,85.8
2023-04-29T15:53:15.112Z,73.3
2023-04-29T15:59:07.198Z,62.6
2023-04-29T16:04:59.968Z,71.9
2023-04-29T16:10:52.439Z,71.8
2023-04-29T16:18:24.170Z,79
2023-04-29T16:24:14.140Z,72.8
2023-04-29T16:30:07.007Z,72.3
2023-04-29T16:36:00.397Z,73.4
2023-04-29T16:41:54.241Z,59.4
2023-04-29T16:48:55.509Z,64.8
2023-04-29T16:54:48.684Z,64.3
2023-04-29T17:00:38.916Z,70.5
2023-04-29T17:06:30.693Z,68.6
2023-04-29T17:12:23.331Z,69.2
2023-04-29T17:18:15.437Z,66.7
2023-04-29T17:24:06.869Z,68.6
2023-04-29T17:30:00.145Z,67.7
2023-04-29T17:35:51.352Z,72.9
2023-04-29T17:41:42.942Z,66.2
2023-04-29T17:47:35.045Z,68.3
2023-04-29T17:53:39.755Z,66.8
2023-04-29T17:59:33.385Z,65.5
2023-04-29T18:05:38.318Z,68.8
2023-04-29T18:11:30.675Z,65.6
2023-04-29T18:17:23.374Z,64.4
2023-04-29T18:23:15.447Z,67.2
2023-04-29T18:29:08.447Z,66.4
2023-04-29T18:35:00.369Z,67.6
2023-04-29T18:40:51.092Z,67.7
2023-04-29T18:47:03.389Z,69.1
2023-04-29T18:53:07.769Z,67.2
2023-04-29T18:59:00.902Z,70.5
2023-04-29T19:04:52.958Z,71
2023-04-29T19:11:03.666Z,66.1
2023-04-29T19:16:55.684Z,68.1
2023-04-29T19:22:59.874Z,68.2
2023-04-29T19:28:51.394Z,62.8
2023-04-29T19:34:49.083Z,69.6
2023-04-29T19:40:45.100Z,76.8
2023-04-29T19:46:40.526Z,86.6
2023-04-29T19:52:37.377Z,81.2
2023-04-29T19:58:31.482Z,78.9
2023-04-29T20:04:23.826Z,76.9
2023-04-29T20:10:16.076Z,79.1
2023-04-29T20:16:08.916Z,82.4
2023-04-29T20:22:03.861Z,82.1
2023-04-29T20:28:01.553Z,83
2023-04-29T20:34:22.659Z,83.2
2023-04-29T20:40:26.105Z,90.1
2023-04-29T20:52:28.383Z,79.8
2023-04-29T20:58:21.625Z,84.8
2023-04-29T21:04:13.167Z,87.7
2023-04-29T21:10:05.454Z,83.7
2023-04-29T21:15:58.012Z,86.2
2023-04-29T21:21:50.527Z,84.3
2023-04-29T21:27:44.145Z,87
2023-04-29T21:33:37.161Z,84.1
2023-04-29T21:39:29.591Z,87.6
2023-04-29T21:45:22.247Z,86.2
2023-04-29T21:51:14.623Z,87.1
2023-04-29T21:57:04.922Z,85.4
2023-04-29T22:02:58.113Z,80.8
2023-04-29T22:08:50.877Z,80.5
2023-04-29T22:14:42.856Z,82.6
2023-04-29T22:20:36.138Z,86.2
2023-04-29T22:26:28.137Z,79.5
2023-04-29T22:32:21.197Z,82.4
2023-04-29T22:38:12.998Z,82.7
2023-04-29T22:44:05.834Z,81.9
2023-04-29T22:49:59.541Z,83.6
2023-04-29T22:55:53.019Z,84
2023-04-29T23:01:46.303Z,81.3
2023-04-29T23:07:40.700Z,85.9
2023-04-29T23:13:33.426Z,98.5
2023-04-29T23:19:25.359Z,88.4
2023-04-29T23:25:17.329Z,86.9
2023-04-29T23:31:09.521Z,87
2023-04-29T23:37:01.822Z,90.6
2023-04-29T23:42:53.982Z,87
2023-04-29T23:48:46.042Z,90.2
2023-04-29T23:54:42.359Z,86
